Time;durP1;ratioP1;P1;durP2;ratioP2;P2;SDS_P1;SDS_P2;PMS_P1;PMS_P2;Temp;Humidity;BMP_temperature;BMP_pressure;BME280_temperature;BME280_humidity;BME280_pressure;Samples;Min_cycle;Max_cycle;Signal;HPM_P1;HPM_P2
2022/09/09 08:35:26;;;;;;;;;2.75;1.75;;;;;24.87;42.32;100534.97;5035502;28;45900;-49
2022/09/09 08:37:54;;;;;;;;;1.75;1.50;;;;;24.88;41.82;100539.31;5037975;28;45328;-48
2022/09/09 08:40:28;;;;;;;;;4.00;2.75;;;;;24.88;42.02;100534.03;5040042;28;45247;-50
2022/09/09 08:42:57;;;;;;;;;2.50;2.00;;;;;24.89;42.44;100541.00;5037918;28;46564;-53
2022/09/09 08:46:10;;;;;;;;;1.00;1.00;;;;;24.90;41.90;100542.69;5039646;28;45330;-52
2022/09/09 08:49:13;;;;;;;;;1.50;1.50;;;;;24.90;42.32;100534.75;5001536;28;44906;-53
2022/09/09 08:51:39;;;;;;;;;1.00;1.00;;;;;24.90;41.92;100542.69;4973300;28;45555;-46
2022/09/09 08:54:04;;;;;;;;;1.00;1.00;;;;;24.90;42.22;100545.34;5028980;28;46197;-49
2022/09/09 08:56:32;;;;;;;;;1.00;1.00;;;;;24.91;42.41;100549.69;5024822;28;45183;-52
2022/09/09 08:59:02;;;;;;;;;1.50;1.00;;;;;24.91;41.90;100547.03;5020302;28;45429;-51
2022/09/09 09:02:04;;;;;;;;;2.00;2.00;;;;;24.91;42.18;100549.69;5036002;28;45338;-49
2022/09/09 09:04:44;;;;;;;;;2.75;1.00;;;;;24.90;42.28;100542.69;5037403;28;47150;-49
2022/09/09 09:07:21;;;;;;;;;1.50;1.50;;;;;24.91;41.63;100560.28;5037867;28;45260;-48
2022/09/09 09:10:02;;;;;;;;;2.00;2.00;;;;;24.91;41.83;100555.00;5042624;28;45361;-48
2022/09/09 09:12:33;;;;;;;;;2.50;2.00;;;;;24.92;42.12;100566.44;5037489;28;45248;-49
2022/09/09 09:14:59;;;;;;;;;2.00;2.00;;;;;24.92;42.31;100567.28;5036358;28;45601;-47
2022/09/09 09:17:31;;;;;;;;;3.00;1.50;;;;;24.93;42.28;100573.41;5043034;28;45398;-52
2022/09/09 09:19:57;;;;;;;;;2.00;2.00;;;;;24.93;41.57;100573.41;5041228;28;45362;-45
2022/09/09 09:22:33;;;;;;;;;2.00;1.75;;;;;24.93;41.92;100579.59;5041735;28;45418;-48
2022/09/09 09:24:59;;;;;;;;;2.00;1.00;;;;;24.93;42.36;100574.28;5057634;28;46185;-49
2022/09/09 09:27:39;;;;;;;;;2.25;1.50;;;;;24.94;42.35;100583.94;5044469;28;45468;-49
2022/09/09 09:30:17;;;;;;;;;1.00;1.00;;;;;24.94;41.79;100581.28;5040688;28;45232;-46
2022/09/09 09:32:51;;;;;;;;;2.50;2.50;;;;;24.93;42.22;100579.59;5043867;28;45516;-46
2022/09/09 09:35:17;;;;;;;;;3.00;2.00;;;;;24.94;41.99;100593.66;5043094;28;47248;-50
2022/09/09 09:37:45;;;;;;;;;2.00;1.00;;;;;24.93;42.12;100582.22;5041333;28;45555;-46
2022/09/09 09:40:19;;;;;;;;;3.75;1.00;;;;;24.93;42.17;100595.50;5041029;28;45382;-47
2022/09/09 09:42:56;;;;;;;;;0.75;0.75;;;;;24.93;41.88;100603.44;5042387;28;45541;-47
2022/09/09 09:45:33;;;;;;;;;1.75;1.75;;;;;24.94;42.36;100605.13;5043815;28;47673;-50
2022/09/09 09:48:02;;;;;;;;;2.75;1.50;;;;;24.94;41.95;100606.94;5045412;28;45246;-46
2022/09/09 09:50:27;;;;;;;;;1.50;1.00;;;;;24.93;41.83;100603.44;5046755;28;45827;-48
2022/09/09 09:52:56;;;;;;;;;3.75;2.25;;;;;24.94;42.29;100607.78;5059104;28;45374;-56
2022/09/09 09:55:22;;;;;;;;;1.50;1.50;;;;;24.94;42.42;100606.94;5039889;28;45947;-51
2022/09/09 09:57:48;;;;;;;;;4.75;2.00;;;;;24.94;42.14;100610.44;5043269;28;45661;-49
2022/09/09 10:00:17;;;;;;;;;0.00;0.00;;;;;24.94;41.82;100599.84;5040463;28;45250;-49
2022/09/09 10:02:44;;;;;;;;;1.00;1.00;;;;;24.95;41.81;100604.19;5040492;28;45319;-52
2022/09/09 10:05:15;;;;;;;;;3.75;2.00;;;;;24.95;42.38;100598.88;5039336;28;47910;-50
2022/09/09 10:07:40;;;;;;;;;1.00;1.00;;;;;24.96;42.21;100605.88;5040251;28;45223;-53
2022/09/09 10:10:15;;;;;;;;;4.00;2.00;;;;;24.96;41.84;100605.00;5039491;28;45346;-50
2022/09/09 10:12:44;;;;;;;;;3.00;2.00;;;;;24.96;41.66;100610.31;5044265;28;45514;-51
2022/09/09 10:15:23;;;;;;;;;1.75;1.75;;;;;24.97;41.89;100606.69;5043801;28;46299;-50
2022/09/09 10:18:01;;;;;;;;;3.75;2.00;;;;;24.95;42.07;100609.47;5040782;28;45568;-53
2022/09/09 10:20:36;;;;;;;;;1.00;1.00;;;;;24.94;41.72;100615.75;5042342;28;45429;-52
2022/09/09 10:23:44;;;;;;;;;3.00;1.00;;;;;24.88;41.93;100613.53;5042466;28;45530;-52
2022/09/09 10:26:38;;;;;;;;;2.00;2.00;;;;;24.78;41.67;100608.13;5015661;28;45469;-55
2022/09/09 10:29:16;;;;;;;;;2.50;2.00;;;;;24.72;41.89;100608.59;5040351;28;45434;-55
2022/09/09 10:31:50;;;;;;;;;4.00;3.00;;;;;24.71;41.77;100617.50;5039626;28;45434;-55
2022/09/09 10:34:42;;;;;;;;;3.25;2.25;;;;;24.69;42.23;100614.97;5039119;28;45452;-53
2022/09/09 10:37:46;;;;;;;;;2.00;2.00;;;;;24.65;42.00;100613.47;5021833;28;47200;-53
2022/09/09 10:40:26;;;;;;;;;2.00;2.00;;;;;24.62;42.09;100619.03;5050939;28;45635;-55
2022/09/09 10:42:59;;;;;;;;;2.00;2.00;;;;;24.57;42.35;100620.34;5042011;28;45399;-53
2022/09/09 10:45:34;;;;;;;;;3.25;2.00;;;;;24.53;42.74;100619.72;5018835;28;45458;-50
2022/09/09 10:48:02;;;;;;;;;7.50;2.00;;;;;24.57;41.99;100617.69;5019273;28;47053;-56
2022/09/09 10:50:49;;;;;;;;;0.50;0.50;;;;;24.61;42.15;100616.50;5024338;28;45289;-50
2022/09/09 10:53:27;;;;;;;;;2.50;2.25;;;;;24.64;42.44;100610.97;5024927;28;45210;-55
2022/09/09 10:56:04;;;;;;;;;3.75;2.00;;;;;24.67;42.49;100608.91;5023952;28;45602;-50
2022/09/09 10:58:53;;;;;;;;;2.00;2.00;;;;;24.71;42.58;100612.19;5024614;28;45471;-53
2022/09/09 11:01:25;;;;;;;;;3.00;2.25;;;;;24.73;41.96;100606.81;5040982;28;45182;-52
2022/09/09 11:04:49;;;;;;;;;1.50;1.50;;;;;24.76;42.54;100612.69;5037028;28;45457;-51
2022/09/09 11:07:25;;;;;;;;;2.00;2.00;;;;;24.77;42.57;100614.41;5002787;28;45976;-48
2022/09/09 11:09:58;;;;;;;;;2.00;2.00;;;;;24.78;42.44;100608.13;5040937;28;45418;-51
2022/09/09 11:12:27;;;;;;;;;1.50;1.50;;;;;24.78;42.63;100604.63;5037702;28;45787;-51
2022/09/09 11:15:14;;;;;;;;;3.75;2.50;;;;;24.81;42.47;100607.03;5037228;28;45421;-52
2022/09/09 11:17:46;;;;;;;;;2.00;1.00;;;;;24.82;42.62;100604.25;5038824;28;45224;-49
2022/09/09 11:20:13;;;;;;;;;5.50;2.00;;;;;24.83;42.52;100600.66;5037928;28;47192;-50
2022/09/09 11:22:55;;;;;;;;;4.50;2.00;;;;;24.84;42.12;100605.00;5040821;28;45236;-51
2022/09/09 11:25:33;;;;;;;;;2.00;2.00;;;;;24.85;42.54;100604.03;5049759;28;45334;-50
2022/09/09 11:28:43;;;;;;;;;2.00;2.00;;;;;24.88;42.44;100613.53;5042593;28;45633;-48
2022/09/09 11:31:46;;;;;;;;;2.00;2.00;;;;;24.89;42.06;100603.81;5038727;28;47581;-49
2022/09/09 11:34:36;;;;;;;;;2.50;2.50;;;;;24.89;42.49;100604.63;4987864;28;45233;-47
2022/09/09 11:37:19;;;;;;;;;3.00;2.00;;;;;24.89;42.08;100604.63;5051940;28;45249;-47
2022/09/09 11:40:00;;;;;;;;;0.75;0.00;;;;;24.90;42.05;100619.56;5040781;28;45417;-47
2022/09/09 11:42:26;;;;;;;;;3.25;2.00;;;;;24.91;42.25;100609.84;5034804;28;48498;-46
2022/09/09 11:44:54;;;;;;;;;1.00;1.00;;;;;24.90;42.43;100619.56;5051336;28;44635;-48
2022/09/09 11:47:26;;;;;;;;;1.00;1.00;;;;;24.90;42.21;100627.53;5045662;28;45338;-46
2022/09/09 11:49:53;;;;;;;;;2.00;1.75;;;;;24.91;42.37;100618.63;5040823;28;45449;-49
2022/09/09 11:52:35;;;;;;;;;2.00;2.00;;;;;24.91;42.23;100618.63;5042949;28;47093;-47
2022/09/09 11:55:11;;;;;;;;;2.00;2.00;;;;;24.91;42.48;100613.31;5043656;28;45821;-47
2022/09/09 11:57:38;;;;;;;;;3.75;2.00;;;;;24.92;42.73;100619.44;5040839;28;45275;-46
2022/09/09 12:00:05;;;;;;;;;3.00;1.25;;;;;24.93;42.33;100645.00;5038569;28;45242;-47
2022/09/09 12:02:31;;;;;;;;;1.50;1.25;;;;;24.92;42.37;100632.69;5036934;28;46208;-49
2022/09/09 12:05:08;;;;;;;;;3.00;2.00;;;;;24.92;42.78;100638.88;5042236;28;45512;-46
2022/09/09 12:07:42;;;;;;;;;2.00;2.00;;;;;24.93;42.35;100637.91;5044178;28;45274;-49
2022/09/09 12:10:07;;;;;;;;;2.00;2.00;;;;;24.93;42.65;100643.22;5050026;28;45517;-46
2022/09/09 12:12:37;;;;;;;;;2.50;1.50;;;;;24.94;42.46;100636.94;5055733;28;45168;-46
2022/09/09 12:15:09;;;;;;;;;2.00;2.00;;;;;24.96;42.82;100642.13;5050783;28;45884;-50
2022/09/09 12:17:43;;;;;;;;;2.25;2.25;;;;;24.95;42.29;100648.38;5040516;28;45260;-47
2022/09/09 12:20:28;;;;;;;;;2.00;2.00;;;;;24.94;42.83;100655.50;5038172;28;45221;-48
2022/09/09 12:23:13;;;;;;;;;1.25;1.00;;;;;24.96;42.86;100647.41;5037341;28;45467;-48
2022/09/09 12:26:12;;;;;;;;;1.00;1.00;;;;;24.95;42.83;100661.63;5037857;28;45568;-51
2022/09/09 12:29:08;;;;;;;;;3.25;2.25;;;;;24.94;42.66;100657.28;5035111;28;45582;-49
2022/09/09 12:32:00;;;;;;;;;1.25;1.25;;;;;24.94;42.97;100665.25;5044380;28;45359;-51
2022/09/09 12:34:43;;;;;;;;;2.25;1.50;;;;;24.93;42.38;100653.81;5033331;28;47056;-49
2022/09/09 12:37:21;;;;;;;;;1.00;1.00;;;;;24.93;42.59;100653.81;5038306;28;45339;-47
2022/09/09 12:39:59;;;;;;;;;1.00;1.00;;;;;24.93;42.42;100651.16;5037737;28;45461;-52
2022/09/09 12:42:25;;;;;;;;;1.00;1.00;;;;;24.94;43.23;100650.19;5035938;28;45494;-52
2022/09/09 12:44:57;;;;;;;;;4.00;2.00;;;;;24.95;43.04;100645.72;5039389;28;46343;-50
2022/09/09 12:47:47;;;;;;;;;4.00;2.00;;;;;24.94;42.83;100652.84;5043880;28;45731;-52
2022/09/09 12:50:21;;;;;;;;;2.00;2.00;;;;;24.94;43.05;100655.50;5038467;28;45529;-50
2022/09/09 12:52:47;;;;;;;;;2.25;2.25;;;;;24.95;43.31;100656.34;5044100;28;45442;-46
2022/09/09 12:55:36;;;;;;;;;4.00;2.25;;;;;24.94;43.35;100660.81;5039359;28;47344;-47
2022/09/09 12:58:06;;;;;;;;;4.00;2.00;;;;;24.94;43.28;100666.09;5037630;28;45497;-48
2022/09/09 13:00:32;;;;;;;;;2.00;2.00;;;;;24.95;43.10;100666.94;5056086;28;45358;-50
2022/09/09 13:03:00;;;;;;;;;1.50;1.50;;;;;24.94;43.58;100667.91;5043439;28;45123;-52
2022/09/09 13:05:28;;;;;;;;;1.75;1.50;;;;;24.94;43.25;100674.06;5039180;28;46432;-53
2022/09/09 13:08:04;;;;;;;;;1.75;1.50;;;;;24.93;43.58;100669.72;5043879;28;45421;-53
2022/09/09 13:10:38;;;;;;;;;2.00;2.00;;;;;24.94;43.51;100673.19;5054358;28;45434;-52
2022/09/09 13:13:04;;;;;;;;;2.00;1.00;;;;;24.94;43.70;100675.84;5044620;28;45628;-47
2022/09/09 13:15:30;;;;;;;;;1.75;1.75;;;;;24.93;43.87;100682.97;5039222;28;46346;-48
2022/09/09 13:18:00;;;;;;;;;3.25;1.75;;;;;24.93;43.39;100687.41;5043252;28;45469;-51
2022/09/09 13:20:27;;;;;;;;;2.25;2.25;;;;;24.93;43.38;100696.22;5039158;28;45233;-51
2022/09/09 13:22:54;;;;;;;;;2.00;2.00;;;;;24.92;43.37;100705.16;5037912;28;45643;-53
2022/09/09 13:25:28;;;;;;;;;4.25;2.00;;;;;24.92;43.87;100710.44;5046530;28;46227;-50
2022/09/09 13:28:03;;;;;;;;;2.00;2.00;;;;;24.91;43.74;100703.44;5048085;28;45371;-49
2022/09/09 13:30:39;;;;;;;;;5.00;2.75;;;;;24.90;43.61;100707.06;5043150;28;45504;-49
2022/09/09 13:33:14;;;;;;;;;2.50;2.50;;;;;24.90;43.79;100712.38;5046970;28;44766;-48
2022/09/09 13:36:10;;;;;;;;;3.25;3.25;;;;;24.90;43.84;100714.19;5047630;28;45577;-50
2022/09/09 13:38:38;;;;;;;;;3.00;3.00;;;;;24.88;44.35;100706.31;5039451;28;45315;-48
2022/09/09 13:41:10;;;;;;;;;3.50;3.00;;;;;24.88;44.03;100703.69;5035660;28;45177;-50
2022/09/09 13:43:45;;;;;;;;;6.25;2.00;;;;;24.89;44.01;100710.66;5038861;28;45593;-50
2022/09/09 13:46:29;;;;;;;;;2.00;2.00;;;;;24.89;43.88;100707.19;5045743;28;46212;-49
2022/09/09 13:48:56;;;;;;;;;2.00;2.00;;;;;24.89;44.43;100708.03;5040930;28;45513;-50
2022/09/09 13:51:30;;;;;;;;;1.00;1.00;;;;;24.89;44.35;100694.75;5036974;28;45453;-47
2022/09/09 13:53:56;;;;;;;;;1.75;1.75;;;;;24.88;43.97;100686.94;5036546;28;45881;-51
2022/09/09 13:56:21;;;;;;;;;1.75;1.75;;;;;24.89;44.48;100675.38;5036185;28;46126;-54
2022/09/09 13:58:47;;;;;;;;;2.00;2.00;;;;;24.90;44.49;100679.72;5036665;28;45475;-52
2022/09/09 14:01:12;;;;;;;;;1.75;1.00;;;;;24.89;44.33;100684.16;5035936;28;54737;-54
2022/09/09 14:03:38;;;;;;;;;3.00;1.00;;;;;24.89;43.90;100689.47;5038883;28;45615;-47
2022/09/09 14:06:03;;;;;;;;;2.25;2.25;;;;;24.90;44.61;100683.19;5037656;28;46370;-50
2022/09/09 14:08:36;;;;;;;;;2.00;2.00;;;;;24.90;44.02;100675.25;5035789;28;54230;-53
2022/09/09 14:11:04;;;;;;;;;2.00;2.00;;;;;24.90;44.09;100677.06;5039436;28;46037;-54
2022/09/09 14:13:30;;;;;;;;;1.00;1.00;;;;;24.90;43.85;100683.19;5045970;28;45243;-50
2022/09/09 14:15:56;;;;;;;;;2.75;2.25;;;;;24.90;44.58;100679.72;5044900;28;46632;-46
2022/09/09 14:18:23;;;;;;;;;2.00;1.25;;;;;24.90;44.71;100677.91;5040268;28;45804;-50
2022/09/09 14:20:50;;;;;;;;;1.00;1.00;;;;;24.90;44.13;100669.94;5041248;28;45346;-49
2022/09/09 14:23:16;;;;;;;;;3.00;1.00;;;;;24.91;44.40;100674.28;5046078;28;45376;-50
2022/09/09 14:25:43;;;;;;;;;1.00;1.00;;;;;24.91;44.39;100676.09;5039586;28;46095;-50
2022/09/09 14:28:12;;;;;;;;;1.00;1.00;;;;;24.92;44.43;100678.63;5039920;28;45287;-48
2022/09/09 14:30:40;;;;;;;;;0.75;0.75;;;;;24.91;44.82;100674.28;5041671;28;45355;-49
2022/09/09 14:33:06;;;;;;;;;2.00;2.00;;;;;24.92;45.01;100681.28;5048057;28;45331;-47
2022/09/09 14:35:33;;;;;;;;;1.00;1.00;;;;;24.93;44.68;100685.63;5057457;28;45401;-51
2022/09/09 14:37:58;;;;;;;;;3.00;1.00;;;;;24.92;44.65;100686.59;5045261;28;45340;-48
2022/09/09 14:40:23;;;;;;;;;1.50;1.25;;;;;24.93;44.92;100688.28;5052465;28;45176;-45
2022/09/09 14:42:49;;;;;;;;;1.00;1.00;;;;;24.92;45.13;100689.22;5057225;28;45398;-48
2022/09/09 14:45:14;;;;;;;;;1.25;1.25;;;;;24.92;44.79;100678.63;5046982;28;45432;-53
2022/09/09 14:47:39;;;;;;;;;3.50;2.25;;;;;24.92;45.05;100686.59;5040843;28;45306;-55
2022/09/09 14:50:05;;;;;;;;;1.75;1.75;;;;;24.93;44.90;100674.16;5045835;28;45322;-52
2022/09/09 14:52:31;;;;;;;;;2.00;2.00;;;;;24.92;44.67;100678.63;5046268;28;45414;-50
2022/09/09 14:54:56;;;;;;;;;1.00;1.00;;;;;24.92;44.84;100683.94;5044778;28;46155;-49
2022/09/09 14:57:22;;;;;;;;;2.25;1.00;;;;;24.94;44.98;100683.81;5046121;28;45419;-48
2022/09/09 14:59:49;;;;;;;;;2.00;2.00;;;;;24.93;44.83;100679.47;5053398;28;45227;-56
2022/09/09 15:02:14;;;;;;;;;0.00;0.00;;;;;24.93;45.05;100671.50;5040853;28;45355;-53
2022/09/09 15:04:39;;;;;;;;;1.25;1.25;;;;;24.93;44.88;100675.03;5039679;28;47139;-51
2022/09/09 15:07:05;;;;;;;;;1.75;0.50;;;;;24.93;45.39;100672.38;5039210;28;45476;-50
2022/09/09 15:09:30;;;;;;;;;3.25;2.00;;;;;24.94;45.10;100665.25;5044077;28;45282;-47
2022/09/09 15:11:55;;;;;;;;;3.50;1.00;;;;;24.95;45.40;100673.09;5037005;28;45423;-52
2022/09/09 15:14:21;;;;;;;;;1.75;1.75;;;;;24.94;45.03;100666.09;5038629;28;45988;-46
2022/09/09 15:16:46;;;;;;;;;1.00;1.00;;;;;24.94;45.20;100663.47;5040274;28;45424;-54
2022/09/09 15:19:11;;;;;;;;;3.50;1.00;;;;;24.96;45.27;100664.19;5044215;28;52617;-50
2022/09/09 15:21:38;;;;;;;;;2.25;2.00;;;;;24.96;45.01;100665.97;5041408;28;45538;-49
2022/09/09 15:24:04;;;;;;;;;1.50;1.00;;;;;24.96;44.92;100658.03;5039219;28;46383;-49
2022/09/09 15:26:30;;;;;;;;;1.00;1.00;;;;;24.96;45.38;100653.59;5053600;28;45525;-51
2022/09/09 15:28:58;;;;;;;;;1.50;1.00;;;;;24.96;44.81;100658.03;5054862;28;44683;-53
2022/09/09 15:31:30;;;;;;;;;0.50;0.50;;;;;24.96;44.62;100666.84;5041302;28;45535;-51
2022/09/09 15:34:02;;;;;;;;;1.50;1.50;;;;;24.96;44.99;100663.31;5041340;28;47333;-49
2022/09/09 15:36:36;;;;;;;;;1.25;1.25;;;;;24.96;44.88;100669.50;5045185;28;45597;-46
2022/09/09 15:39:04;;;;;;;;;2.75;1.25;;;;;24.95;45.25;100672.25;5042458;28;45432;-49
2022/09/09 15:41:33;;;;;;;;;1.25;1.25;;;;;24.95;45.00;100675.75;5041787;28;45477;-48
2022/09/09 15:44:00;;;;;;;;;1.50;1.50;;;;;24.95;44.68;100681.06;5047610;28;46101;-47
2022/09/09 15:46:32;;;;;;;;;2.00;2.00;;;;;24.95;45.35;100685.50;5045478;28;45366;-52
2022/09/09 15:49:11;;;;;;;;;1.25;1.25;;;;;24.95;45.35;100681.06;5048357;28;45299;-50
2022/09/09 15:51:38;;;;;;;;;3.25;2.00;;;;;24.94;44.87;100687.31;5039896;28;45292;-51
2022/09/09 15:54:05;;;;;;;;;1.00;1.00;;;;;24.94;45.40;100686.47;5038075;28;46351;-48
2022/09/09 15:56:32;;;;;;;;;1.00;1.00;;;;;24.93;45.05;100682.13;5039373;28;45232;-47
2022/09/09 15:58:59;;;;;;;;;1.75;1.25;;;;;24.94;45.39;100675.84;5056980;28;44685;-50
2022/09/09 16:01:26;;;;;;;;;1.00;1.00;;;;;24.93;44.63;100676.81;5057633;28;44812;-48
2022/09/09 16:03:51;;;;;;;;;2.00;1.00;;;;;24.92;44.84;100677.78;5052025;28;45534;-50
2022/09/09 16:06:21;;;;;;;;;3.00;1.00;;;;;24.93;44.96;100679.47;5048540;28;45395;-49
2022/09/09 16:08:49;;;;;;;;;1.00;1.00;;;;;24.95;44.64;100680.19;5055229;28;45259;-48
2022/09/09 16:11:19;;;;;;;;;1.00;1.00;;;;;24.94;45.39;100681.16;5052043;28;45392;-53
2022/09/09 16:13:46;;;;;;;;;1.00;1.00;;;;;24.94;45.33;100681.16;5053603;28;46365;-51
2022/09/09 16:16:13;;;;;;;;;0.50;0.50;;;;;24.94;45.26;100687.31;5050011;28;45178;-47
2022/09/09 16:18:41;;;;;;;;;2.00;2.00;;;;;24.93;45.33;100698.88;5039392;28;45357;-48
2022/09/09 16:21:08;;;;;;;;;1.00;1.00;;;;;24.94;44.82;100697.94;5038872;28;45443;-54
2022/09/09 16:23:34;;;;;;;;;2.00;1.00;;;;;24.94;45.39;100697.94;5038459;28;45411;-55
2022/09/09 16:26:01;;;;;;;;;2.00;1.50;;;;;24.92;44.90;100710.44;5037891;28;45712;-49
2022/09/09 16:28:27;;;;;;;;;1.00;1.00;;;;;24.92;44.92;100702.50;5037455;28;45445;-49
2022/09/09 16:30:53;;;;;;;;;1.75;1.50;;;;;24.92;44.90;100713.09;5037795;28;45548;-49
2022/09/09 16:33:18;;;;;;;;;2.00;2.00;;;;;24.93;45.42;100720.09;5037038;28;46063;-49
2022/09/09 16:35:44;;;;;;;;;2.00;2.00;;;;;24.93;45.41;100711.28;5036179;28;45484;-50
2022/09/09 16:38:09;;;;;;;;;1.00;1.00;;;;;24.93;45.22;100716.56;5037334;28;45520;-53
2022/09/09 16:40:36;;;;;;;;;1.00;1.00;;;;;24.92;44.84;100707.78;5037901;28;45434;-50
2022/09/09 16:43:01;;;;;;;;;1.00;1.00;;;;;24.92;45.54;100710.44;5042503;28;46618;-48
2022/09/09 16:45:27;;;;;;;;;2.00;2.00;;;;;24.91;45.51;100708.75;5042775;28;45431;-49
2022/09/09 16:47:53;;;;;;;;;1.50;1.00;;;;;24.92;45.42;100710.44;5038829;28;45311;-52
2022/09/09 16:50:18;;;;;;;;;3.25;2.00;;;;;24.92;45.52;100710.44;5037636;28;45278;-49
2022/09/09 16:52:44;;;;;;;;;2.75;1.00;;;;;24.91;45.44;100714.06;5037981;28;45287;-49
2022/09/09 16:55:09;;;;;;;;;1.00;1.00;;;;;24.91;45.06;100716.72;5041622;28;45259;-50
2022/09/09 16:57:35;;;;;;;;;2.00;1.25;;;;;24.91;45.30;100708.75;5042877;28;45461;-47
2022/09/09 17:00:00;;;;;;;;;2.00;1.00;;;;;24.92;45.34;100705.16;5038222;28;45453;-49
2022/09/09 17:02:26;;;;;;;;;2.00;1.00;;;;;24.91;44.98;100699.97;5040176;28;46300;-47
2022/09/09 17:04:51;;;;;;;;;1.00;1.00;;;;;24.92;45.11;100701.63;5038341;28;45327;-50
2022/09/09 17:07:19;;;;;;;;;2.75;1.50;;;;;24.91;44.79;100698.16;5043557;28;45246;-52
2022/09/09 17:09:45;;;;;;;;;3.00;1.50;;;;;24.90;45.05;100701.75;5051752;28;45292;-50
2022/09/09 17:12:11;;;;;;;;;1.00;1.00;;;;;24.90;45.51;100698.28;5057000;28;45586;-50
2022/09/09 17:14:37;;;;;;;;;1.00;1.00;;;;;24.92;44.99;100693.69;5040958;28;45703;-47
2022/09/09 17:17:04;;;;;;;;;1.00;1.00;;;;;24.91;45.46;100695.50;5038781;28;45334;-47
2022/09/09 17:19:30;;;;;;;;;1.00;1.00;;;;;24.91;44.89;100707.91;5037579;28;45438;-50
2022/09/09 17:21:56;;;;;;;;;1.00;1.00;;;;;24.91;45.18;100718.53;5036808;28;46330;-51
2022/09/09 17:24:22;;;;;;;;;2.00;1.00;;;;;24.90;44.71;100712.38;5035347;28;45425;-46
2022/09/09 17:26:47;;;;;;;;;1.00;1.00;;;;;24.91;44.96;100719.34;5041768;28;45329;-52
2022/09/09 17:29:13;;;;;;;;;3.00;1.00;;;;;24.90;45.15;100717.66;5026292;28;45543;-48
2022/09/09 17:31:38;;;;;;;;;1.00;1.00;;;;;24.90;44.80;100725.63;5041888;28;47673;-53
2022/09/09 17:34:04;;;;;;;;;1.00;1.00;;;;;24.90;44.71;100736.22;5039999;28;45835;-49
2022/09/09 17:36:34;;;;;;;;;1.00;1.00;;;;;24.89;45.14;100736.34;5042911;28;45343;-51
2022/09/09 17:39:01;;;;;;;;;3.25;2.00;;;;;24.89;44.62;100757.56;5042531;28;45236;-47
2022/09/09 17:41:35;;;;;;;;;1.00;1.00;;;;;24.90;45.12;100759.25;5048328;28;47110;-50
2022/09/09 17:44:02;;;;;;;;;3.50;1.00;;;;;24.89;44.75;100757.56;5047144;28;45309;-49
2022/09/09 17:46:31;;;;;;;;;1.00;0.25;;;;;24.88;45.23;100745.25;5050232;28;45433;-51
2022/09/09 17:48:59;;;;;;;;;1.00;1.00;;;;;24.86;45.25;100755.97;5047970;28;45455;-52
2022/09/09 17:51:29;;;;;;;;;2.00;0.25;;;;;24.85;45.47;100751.66;5038973;28;47136;-47
2022/09/09 17:53:58;;;;;;;;;1.75;1.75;;;;;24.84;45.31;100739.34;5039171;28;45721;-49
2022/09/09 17:56:26;;;;;;;;;2.00;2.00;;;;;24.84;45.54;100739.34;5039903;28;45425;-51
2022/09/09 17:58:52;;;;;;;;;2.25;1.50;;;;;24.83;45.17;100737.66;5040363;28;45898;-52
2022/09/09 18:01:26;;;;;;;;;2.25;1.00;;;;;24.83;44.95;100737.66;5040562;28;45351;-53
2022/09/09 18:03:53;;;;;;;;;2.00;1.25;;;;;24.83;45.06;100732.34;5039946;28;45260;-53
2022/09/09 18:06:22;;;;;;;;;1.75;1.75;;;;;24.82;45.35;100726.19;5040629;28;45457;-50
2022/09/09 18:08:50;;;;;;;;;3.00;1.75;;;;;24.82;44.83;100743.91;5043375;28;45251;-53
2022/09/09 18:11:17;;;;;;;;;3.00;2.00;;;;;24.81;45.15;100744.88;5040166;28;45795;-53
2022/09/09 18:13:43;;;;;;;;;1.00;1.00;;;;;24.82;45.22;100755.34;5044581;28;45347;-51
2022/09/09 18:16:09;;;;;;;;;2.00;2.00;;;;;24.82;45.60;100757.16;5046114;28;45606;-46
2022/09/09 18:18:35;;;;;;;;;3.00;2.00;;;;;24.81;45.35;100755.47;5041446;28;45600;-47
2022/09/09 18:21:06;;;;;;;;;2.00;2.00;;;;;24.80;45.24;100754.66;5040252;28;45368;-52
2022/09/09 18:23:41;;;;;;;;;2.00;2.00;;;;;24.81;45.27;100752.81;5040054;28;45674;-51
2022/09/09 18:26:18;;;;;;;;;2.00;2.00;;;;;24.80;45.17;100749.34;5039792;28;45351;-50
2022/09/09 18:28:49;;;;;;;;;2.75;2.00;;;;;24.81;45.26;100758.13;5039735;28;45449;-51
2022/09/09 18:31:16;;;;;;;;;2.75;2.00;;;;;24.79;45.10;100754.75;5040557;28;45975;-55
2022/09/09 18:33:45;;;;;;;;;1.25;1.25;;;;;24.80;45.15;100761.72;5047896;28;45327;-53
2022/09/09 18:36:14;;;;;;;;;4.00;2.75;;;;;24.80;45.20;100759.09;5044701;28;45145;-52
2022/09/09 18:38:41;;;;;;;;;4.00;2.00;;;;;24.79;45.35;100768.84;5041946;28;45634;-53
2022/09/09 18:41:20;;;;;;;;;3.00;2.00;;;;;24.80;45.17;100769.69;5039042;28;46444;-50
2022/09/09 18:43:46;;;;;;;;;2.00;2.00;;;;;24.79;45.56;100762.69;5039037;28;45904;-52
2022/09/09 18:46:11;;;;;;;;;3.50;2.00;;;;;24.80;45.67;100775.00;5039426;28;45415;-49
2022/09/09 18:48:38;;;;;;;;;2.75;1.00;;;;;24.78;45.41;100772.47;5038395;28;45428;-53
2022/09/09 18:51:05;;;;;;;;;2.00;2.00;;;;;24.79;45.18;100773.28;5039309;28;46424;-50
2022/09/09 18:53:31;;;;;;;;;2.50;2.00;;;;;24.78;45.75;100769.81;5043123;28;45651;-50
2022/09/09 18:55:58;;;;;;;;;4.00;2.00;;;;;24.79;45.88;100775.94;5045091;28;45378;-48
2022/09/09 18:58:23;;;;;;;;;2.50;2.00;;;;;24.78;45.34;100777.75;5038415;28;45312;-49
2022/09/09 19:00:49;;;;;;;;;1.75;1.75;;;;;24.78;45.60;100791.03;5038939;28;47389;-48
2022/09/09 19:03:14;;;;;;;;;1.75;1.00;;;;;24.79;45.82;100789.19;5041282;28;57657;-50
2022/09/09 19:05:40;;;;;;;;;3.00;2.25;;;;;24.79;45.76;100789.19;5044959;28;45296;-48
2022/09/09 19:08:05;;;;;;;;;1.50;1.50;;;;;24.79;45.75;100791.84;5041443;28;49177;-54
2022/09/09 19:10:35;;;;;;;;;3.00;2.00;;;;;24.78;45.03;100793.66;5044421;28;45373;-48
2022/09/09 19:13:00;;;;;;;;;3.25;2.00;;;;;24.77;45.48;100796.41;5044962;28;45697;-48
2022/09/09 19:15:27;;;;;;;;;1.00;1.00;;;;;24.78;45.39;100803.41;5047604;28;45192;-50
2022/09/09 19:17:54;;;;;;;;;3.00;2.00;;;;;24.78;45.47;100798.09;5047990;28;45592;-51
2022/09/09 19:20:22;;;;;;;;;2.00;2.00;;;;;24.77;45.62;100813.19;5038792;28;46231;-51
2022/09/09 19:22:48;;;;;;;;;2.50;2.50;;;;;24.78;44.98;100808.72;5038868;28;45741;-48
2022/09/09 19:25:14;;;;;;;;;2.00;2.00;;;;;24.77;45.37;100809.66;5038933;28;45351;-54
2022/09/09 19:27:41;;;;;;;;;2.25;2.25;;;;;24.77;45.12;100817.63;5038525;28;45276;-47
2022/09/09 19:30:08;;;;;;;;;2.50;2.25;;;;;24.77;45.03;100814.97;5037307;28;45384;-51
2022/09/09 19:32:36;;;;;;;;;3.75;2.00;;;;;24.76;45.07;100822.09;5043489;28;45347;-51
2022/09/09 19:35:02;;;;;;;;;3.25;3.25;;;;;24.76;45.38;100822.09;5047721;28;45292;-51
2022/09/09 19:37:28;;;;;;;;;4.00;2.00;;;;;24.76;45.01;100823.88;5042015;28;45590;-50
2022/09/09 19:39:53;;;;;;;;;2.25;2.25;;;;;24.76;44.87;100826.53;5054455;28;45252;-48
2022/09/09 19:42:18;;;;;;;;;2.75;1.75;;;;;24.76;44.86;100826.53;5053030;28;44638;-47
2022/09/09 19:44:45;;;;;;;;;3.50;3.00;;;;;24.75;45.10;100833.66;5049575;28;45724;-49
2022/09/09 19:47:13;;;;;;;;;2.50;2.50;;;;;24.76;45.55;100831.81;5043796;28;45211;-46
2022/09/09 19:49:39;;;;;;;;;5.00;3.00;;;;;24.75;44.92;100838.13;5021081;28;45516;-55
2022/09/09 19:52:05;;;;;;;;;5.50;3.00;;;;;24.73;44.88;100843.50;5021547;28;45776;-52
2022/09/09 19:54:30;;;;;;;;;3.25;3.00;;;;;24.75;45.11;100838.94;5023943;28;45629;-55
2022/09/09 19:56:55;;;;;;;;;5.00;3.50;;;;;24.74;45.06;100845.19;5018810;28;45476;-51
2022/09/09 19:59:21;;;;;;;;;2.00;2.00;;;;;24.73;45.54;100840.84;5020997;28;54827;-45
2022/09/09 20:01:46;;;;;;;;;2.50;2.50;;;;;24.73;45.53;100854.09;5022130;28;45434;-55
2022/09/09 20:04:13;;;;;;;;;4.50;2.00;;;;;24.73;45.39;100845.31;5036507;28;45498;-51
2022/09/09 20:06:41;;;;;;;;;2.00;2.00;;;;;24.72;45.64;100851.59;5038320;28;45586;-53
2022/09/09 20:09:11;;;;;;;;;2.75;2.75;;;;;24.72;45.46;100856.88;5038160;28;47211;-51
2022/09/09 20:11:38;;;;;;;;;2.75;2.75;;;;;24.71;44.99;100858.66;5043323;28;45362;-47
2022/09/09 20:14:03;;;;;;;;;3.75;2.00;;;;;24.72;45.64;100860.38;5044036;28;45477;-48
2022/09/09 20:16:30;;;;;;;;;4.50;1.50;;;;;24.72;45.12;100862.19;5041001;28;45212;-49